createdAt,value
2023-03-12T00:00:42.021Z,1.10
2023-03-12T00:03:10.823Z,1.10
2023-03-12T00:05:39.544Z,1.10
2023-03-12T00:08:08.236Z,1.10
2023-03-12T00:10:37.105Z,1.20
2023-03-12T00:13:06.718Z,1.10
2023-03-12T00:15:37.873Z,1.10
2023-03-12T00:18:06.327Z,1.20
2023-03-12T00:20:34.922Z,1.10
2023-03-12T00:23:03.060Z,1.10
2023-03-12T00:25:31.470Z,1.00
2023-03-12T00:27:59.536Z,1.10
2023-03-12T00:30:29.812Z,1.00
2023-03-12T00:32:57.875Z,1.10
2023-03-12T00:35:26.348Z,1.10
2023-03-12T00:37:54.723Z,1.00
2023-03-12T00:40:22.815Z,1.00
2023-03-12T00:42:50.941Z,1.10
2023-03-12T00:45:19.169Z,1.00
2023-03-12T00:47:48.667Z,1.10
2023-03-12T00:50:17.144Z,1.00
2023-03-12T00:52:45.512Z,1.10
2023-03-12T00:55:13.648Z,1.00
2023-03-12T00:57:41.982Z,1.00
2023-03-12T01:00:12.858Z,0.90
2023-03-12T01:05:13.532Z,0.90
2023-03-12T01:07:41.667Z,0.90
2023-03-12T01:10:12.332Z,0.90
2023-03-12T01:12:40.749Z,0.90
2023-03-12T01:15:10.242Z,0.80
2023-03-12T01:17:38.341Z,0.90
2023-03-12T01:20:08.364Z,1.00
2023-03-12T01:22:38.339Z,0.90
2023-03-12T01:25:07.840Z,0.90
2023-03-12T01:27:36.360Z,0.90
2023-03-12T01:30:05.267Z,0.80
2023-03-12T01:32:33.929Z,0.90
2023-03-12T01:35:02.349Z,0.90
2023-03-12T01:37:30.722Z,0.90
2023-03-12T01:40:00.648Z,0.80
2023-03-12T01:42:29.173Z,0.80
2023-03-12T01:44:59.833Z,0.80
2023-03-12T01:47:31.921Z,0.80
2023-03-12T01:50:02.261Z,0.80
2023-03-12T01:52:33.602Z,0.80
2023-03-12T01:55:08.083Z,0.70
2023-03-12T01:57:39.411Z,0.70
2023-03-12T02:00:11.747Z,0.80
2023-03-12T02:02:40.845Z,0.80
2023-03-12T02:05:14.957Z,0.70
2023-03-12T02:07:43.094Z,0.70
2023-03-12T02:10:13.443Z,0.70
2023-03-12T02:12:41.518Z,0.70
2023-03-12T02:15:13.324Z,0.70
2023-03-12T02:17:41.883Z,0.70
2023-03-12T02:20:18.322Z,0.70
2023-03-12T02:22:50.546Z,0.60
2023-03-12T02:25:31.894Z,0.60
2023-03-12T02:28:01.547Z,0.60
2023-03-12T02:30:31.913Z,0.70
2023-03-12T02:33:02.952Z,0.60
2023-03-12T02:35:31.300Z,0.60
2023-03-12T02:38:00.006Z,0.50
2023-03-12T02:40:34.919Z,0.60
2023-03-12T02:43:06.059Z,0.60
2023-03-12T02:45:36.424Z,0.50
2023-03-12T02:48:04.992Z,0.50
2023-03-12T02:50:33.325Z,0.50
2023-03-12T02:53:01.716Z,0.50
2023-03-12T02:55:31.474Z,0.60
2023-03-12T02:57:59.596Z,0.50
2023-03-12T03:00:28.121Z,0.50
2023-03-12T03:02:56.214Z,0.50
2023-03-12T03:05:24.556Z,0.50
2023-03-12T03:07:52.925Z,0.50
2023-03-12T03:10:21.131Z,0.50
2023-03-12T03:12:51.832Z,0.50
2023-03-12T03:15:20.065Z,0.40
2023-03-12T03:17:48.148Z,0.40
2023-03-12T03:20:16.410Z,0.40
2023-03-12T03:22:44.936Z,0.50
2023-03-12T03:25:13.354Z,0.40
2023-03-12T03:27:41.430Z,0.50
2023-03-12T03:30:13.365Z,0.50
2023-03-12T03:32:41.589Z,0.50
2023-03-12T03:35:10.796Z,0.40
2023-03-12T03:37:39.154Z,0.50
2023-03-12T03:40:11.707Z,0.40
2023-03-12T03:42:40.924Z,0.40
2023-03-12T03:45:11.400Z,0.40
2023-03-12T03:47:39.526Z,0.40
2023-03-12T03:50:08.392Z,0.40
2023-03-12T03:52:36.568Z,0.30
2023-03-12T03:55:05.408Z,0.30
2023-03-12T03:57:33.826Z,0.30
2023-03-12T04:00:03.780Z,0.30
2023-03-12T04:02:33.781Z,0.30
2023-03-12T04:05:02.514Z,0.40
2023-03-12T04:07:30.743Z,0.30
2023-03-12T04:09:59.116Z,0.40
2023-03-12T04:12:28.117Z,0.40
2023-03-12T04:14:56.552Z,0.40
2023-03-12T04:17:24.657Z,0.50
2023-03-12T04:19:54.274Z,0.40
2023-03-12T04:22:22.817Z,0.20
2023-03-12T04:24:51.372Z,0.20
2023-03-12T04:27:19.767Z,0.20
2023-03-12T04:29:47.840Z,0.20
2023-03-12T04:32:16.112Z,0.20
2023-03-12T04:34:44.268Z,0.20
2023-03-12T04:37:14.668Z,0.20
2023-03-12T04:39:43.621Z,0.10
2023-03-12T04:42:12.508Z,0.10
2023-03-12T04:44:41.633Z,0.10
2023-03-12T04:47:10.123Z,0.00
2023-03-12T04:49:39.941Z,-0.10
2023-03-12T04:52:08.337Z,-0.10
2023-03-12T04:54:38.344Z,-0.10
2023-03-12T04:57:06.461Z,-0.10
2023-03-12T04:59:34.568Z,-0.10
2023-03-12T05:02:03.003Z,-0.10
2023-03-12T05:04:33.541Z,-0.10
2023-03-12T05:07:02.049Z,-0.10
2023-03-12T05:09:30.167Z,-0.20
2023-03-12T05:11:59.912Z,-0.20
2023-03-12T05:14:28.449Z,-0.30
2023-03-12T05:16:56.522Z,-0.30
2023-03-12T05:19:24.860Z,-0.30
2023-03-12T05:21:53.146Z,-0.30
2023-03-12T05:24:22.047Z,-0.30
2023-03-12T05:26:50.177Z,-0.30
2023-03-12T05:29:19.676Z,-0.30
2023-03-12T05:31:48.311Z,-0.40
2023-03-12T05:34:17.177Z,-0.40
2023-03-12T05:36:45.601Z,-0.40
2023-03-12T05:39:13.748Z,-0.40
2023-03-12T05:41:41.840Z,-0.40
2023-03-12T05:44:13.538Z,-0.20
2023-03-12T05:46:44.096Z,-0.30
2023-03-12T05:49:12.591Z,-0.30
2023-03-12T05:51:40.895Z,-0.30
2023-03-12T05:54:08.983Z,-0.20
2023-03-12T05:56:38.067Z,-0.10
2023-03-12T05:59:07.487Z,0.00
2023-03-12T06:01:35.768Z,0.10
2023-03-12T06:04:05.646Z,0.20
2023-03-12T06:06:37.750Z,0.20
2023-03-12T06:09:06.608Z,0.20
2023-03-12T06:11:35.476Z,0.30
2023-03-12T06:14:03.920Z,0.40
2023-03-12T06:16:32.490Z,0.70
2023-03-12T06:19:02.429Z,1.00
2023-03-12T06:21:33.889Z,1.50
2023-03-12T06:24:02.447Z,1.80
2023-03-12T06:26:30.868Z,1.40
2023-03-12T06:28:59.369Z,1.20
2023-03-12T06:31:27.706Z,1.30
2023-03-12T06:33:56.117Z,1.40
2023-03-12T06:36:24.627Z,1.30
2023-03-12T06:38:56.932Z,1.30
2023-03-12T06:41:25.509Z,1.20
2023-03-12T06:43:54.246Z,1.30
2023-03-12T06:46:25.348Z,1.20
2023-03-12T06:48:53.514Z,1.30
2023-03-12T06:51:21.659Z,1.20
2023-03-12T06:53:50.119Z,1.20
2023-03-12T06:56:19.639Z,1.50
2023-03-12T06:58:47.714Z,1.60
2023-03-12T07:01:16.288Z,1.70
2023-03-12T07:03:44.413Z,1.50
2023-03-12T07:06:16.967Z,1.30
2023-03-12T07:08:45.756Z,1.50
2023-03-12T07:11:15.030Z,1.50
2023-03-12T07:13:45.168Z,1.50
2023-03-12T07:16:13.815Z,1.80
2023-03-12T07:18:42.721Z,2.30
2023-03-12T07:21:10.824Z,2.50
2023-03-12T07:23:39.019Z,2.70
2023-03-12T07:26:07.484Z,2.70
2023-03-12T07:28:35.631Z,2.70
2023-03-12T07:31:06.484Z,2.70
2023-03-12T07:33:35.213Z,2.90
2023-03-12T07:36:03.972Z,3.20
2023-03-12T07:38:32.466Z,3.50
2023-03-12T07:41:01.417Z,3.50
2023-03-12T07:43:29.628Z,3.40
2023-03-12T07:45:57.909Z,3.40
2023-03-12T07:48:27.780Z,3.60
2023-03-12T07:50:56.105Z,4.40
2023-03-12T07:53:24.429Z,4.60
2023-03-12T07:55:52.600Z,4.40
2023-03-12T07:58:20.874Z,4.60
2023-03-12T08:00:49.114Z,3.90
2023-03-12T08:03:18.061Z,3.70
2023-03-12T08:05:56.312Z,3.40
2023-03-12T08:08:24.799Z,3.40
2023-03-12T08:10:52.961Z,3.80
2023-03-12T08:13:23.233Z,3.70
2023-03-12T08:15:51.948Z,3.50
2023-03-12T08:18:21.086Z,3.70
2023-03-12T08:20:53.259Z,3.40
2023-03-12T08:23:22.749Z,3.40
2023-03-12T08:25:51.881Z,3.50
2023-03-12T08:28:21.415Z,3.60
2023-03-12T08:30:50.787Z,3.70
2023-03-12T08:33:19.248Z,3.70
2023-03-12T08:35:47.958Z,3.80
2023-03-12T08:38:17.498Z,3.90
2023-03-12T08:40:45.661Z,4.10
2023-03-12T08:43:14.183Z,4.30
2023-03-12T08:45:42.372Z,4.20
2023-03-12T08:48:10.820Z,4.20
2023-03-12T08:50:38.902Z,4.40
2023-03-12T08:53:07.329Z,4.50
2023-03-12T08:55:36.792Z,4.80
2023-03-12T08:58:04.914Z,4.80
2023-03-12T09:00:33.312Z,5.20
2023-03-12T09:03:01.429Z,5.40
2023-03-12T09:05:30.369Z,5.70
2023-03-12T09:07:58.729Z,5.90
2023-03-12T09:10:30.773Z,5.80
2023-03-12T09:13:01.287Z,5.70
2023-03-12T09:15:29.471Z,5.60
2023-03-12T09:17:57.560Z,5.70
2023-03-12T09:20:26.698Z,5.70
2023-03-12T09:22:54.807Z,5.70
2023-03-12T09:25:23.483Z,5.50
2023-03-12T09:27:52.020Z,5.50
2023-03-12T09:30:25.136Z,5.00
2023-03-12T09:32:53.646Z,5.10
2023-03-12T09:35:21.867Z,5.60
2023-03-12T09:37:51.646Z,5.70
2023-03-12T09:40:23.341Z,5.80
2023-03-12T09:42:56.984Z,6.20
2023-03-12T09:45:28.958Z,6.20
2023-03-12T09:48:00.209Z,6.70
2023-03-12T09:50:31.792Z,6.80
2023-03-12T09:53:04.006Z,6.60
2023-03-12T09:55:38.106Z,6.60
2023-03-12T09:58:10.845Z,6.00
2023-03-12T10:00:40.573Z,6.50
2023-03-12T10:03:38.374Z,6.50
2023-03-12T10:06:12.916Z,6.50
2023-03-12T10:08:55.530Z,7.00
2023-03-12T10:11:37.378Z,6.50
2023-03-12T10:14:24.033Z,8.00
2023-03-12T10:17:04.354Z,7.40
2023-03-12T10:19:46.986Z,7.40
2023-03-12T10:22:29.109Z,7.30
2023-03-12T10:25:05.815Z,6.80
2023-03-12T10:27:37.225Z,6.40
2023-03-12T10:30:17.480Z,6.10
2023-03-12T10:32:50.672Z,6.50
2023-03-12T10:35:21.977Z,7.00
2023-03-12T10:37:53.745Z,6.20
2023-03-12T10:40:23.264Z,6.10
2023-03-12T10:42:51.861Z,6.60
2023-03-12T10:45:28.479Z,6.10
2023-03-12T10:48:01.701Z,5.80
2023-03-12T10:50:32.584Z,6.10
2023-03-12T10:53:32.742Z,6.10
2023-03-12T10:56:07.242Z,6.20
2023-03-12T10:58:38.214Z,5.80
2023-03-12T11:01:08.688Z,6.10
2023-03-12T11:03:38.861Z,5.90
2023-03-12T11:06:10.672Z,6.10
2023-03-12T11:08:39.509Z,6.20
2023-03-12T11:11:07.648Z,6.40
2023-03-12T11:13:38.011Z,6.00
2023-03-12T11:16:31.430Z,5.80
2023-03-12T11:19:04.197Z,6.00
2023-03-12T11:21:37.002Z,5.70
2023-03-12T11:24:09.115Z,5.30
2023-03-12T11:26:45.472Z,5.50
2023-03-12T11:29:28.473Z,5.90
2023-03-12T11:32:03.493Z,5.70
2023-03-12T11:34:35.584Z,5.70
2023-03-12T11:37:11.850Z,5.70
2023-03-12T11:40:06.442Z,5.70
2023-03-12T11:42:51.756Z,5.70
2023-03-12T11:45:27.230Z,5.70
2023-03-12T11:48:07.556Z,5.30
2023-03-12T11:50:48.900Z,5.80
2023-03-12T11:53:37.905Z,5.70
2023-03-12T11:56:19.293Z,5.80
2023-03-12T11:59:02.716Z,5.40
2023-03-12T12:01:43.831Z,5.50
2023-03-12T12:04:39.516Z,5.30
2023-03-12T12:07:16.159Z,5.70
2023-03-12T12:09:50.882Z,6.00
2023-03-12T12:12:32.741Z,5.70
2023-03-12T12:15:15.923Z,5.60
2023-03-12T12:17:53.853Z,5.70
2023-03-12T12:20:30.611Z,5.40
2023-03-12T12:23:20.938Z,5.50
2023-03-12T12:26:06.941Z,5.50
2023-03-12T12:28:54.130Z,5.70
2023-03-12T12:31:31.402Z,5.70
2023-03-12T12:34:22.747Z,5.70
2023-03-12T12:36:56.033Z,5.70
2023-03-12T12:39:33.829Z,5.70
2023-03-12T12:42:07.153Z,5.50
2023-03-12T12:44:40.461Z,5.60
2023-03-12T12:47:16.618Z,5.40
2023-03-12T12:49:47.901Z,5.70
2023-03-12T12:52:20.032Z,6.10
2023-03-12T12:54:59.983Z,5.80
2023-03-12T12:57:36.616Z,5.50
2023-03-12T13:00:21.474Z,5.40
2023-03-12T13:02:51.525Z,5.30
2023-03-12T13:05:22.861Z,5.00
2023-03-12T13:07:51.411Z,5.40
2023-03-12T13:10:53.136Z,5.30
2023-03-12T13:13:27.588Z,5.50
2023-03-12T13:16:19.733Z,5.00
2023-03-12T13:18:58.403Z,5.10
2023-03-12T13:21:37.663Z,5.10
2023-03-12T13:24:21.057Z,5.50
2023-03-12T13:27:00.152Z,5.60
2023-03-12T13:29:40.232Z,5.20
2023-03-12T13:32:31.870Z,5.50
2023-03-12T13:35:00.136Z,5.30
2023-03-12T13:37:58.280Z,4.90
2023-03-12T13:41:00.961Z,5.20
2023-03-12T13:43:54.860Z,4.70
2023-03-12T13:46:47.161Z,4.40
2023-03-12T13:49:19.721Z,4.60
2023-03-12T13:51:59.220Z,4.70
2023-03-12T13:54:32.867Z,4.60
2023-03-12T13:57:06.101Z,4.80
2023-03-12T13:59:36.572Z,4.90
2023-03-12T14:02:13.462Z,5.00
2023-03-12T14:04:43.296Z,5.50
2023-03-12T14:07:42.130Z,5.70
2023-03-12T14:10:21.098Z,5.30
2023-03-12T14:12:57.586Z,5.00
2023-03-12T14:15:34.038Z,4.70
2023-03-12T14:18:10.806Z,4.80
2023-03-12T14:20:41.609Z,4.70
2023-03-12T14:23:16.846Z,4.70
2023-03-12T14:25:47.347Z,5.20
2023-03-12T14:28:19.927Z,5.30
2023-03-12T14:30:57.243Z,5.50
2023-03-12T14:33:27.596Z,5.10
2023-03-12T14:35:59.978Z,5.30
2023-03-12T14:38:33.894Z,5.20
2023-03-12T14:41:05.791Z,4.80
2023-03-12T14:43:36.106Z,5.00
2023-03-12T14:46:08.362Z,4.90
2023-03-12T14:48:38.082Z,4.90
2023-03-12T14:51:07.815Z,4.70
2023-03-12T14:53:37.107Z,4.80
2023-03-12T14:56:08.704Z,5.00
2023-03-12T14:58:44.533Z,5.20
2023-03-12T15:01:19.127Z,4.90
2023-03-12T15:03:49.183Z,5.00
2023-03-12T15:06:21.358Z,5.20
2023-03-12T15:08:50.093Z,4.70
2023-03-12T15:11:23.567Z,4.90
2023-03-12T15:13:53.241Z,4.70
2023-03-12T15:16:24.406Z,4.60
2023-03-12T15:18:53.047Z,4.60
2023-03-12T15:21:22.387Z,4.60
2023-03-12T15:23:52.585Z,4.30
2023-03-12T15:26:32.060Z,4.40
2023-03-12T15:29:02.073Z,4.20
2023-03-12T15:31:42.912Z,4.20
2023-03-12T15:34:13.957Z,4.20
2023-03-12T15:36:48.497Z,4.10
2023-03-12T15:39:26.831Z,4.10
2023-03-12T15:41:55.763Z,4.20
2023-03-12T15:44:26.064Z,4.30
2023-03-12T15:46:58.882Z,4.50
2023-03-12T15:49:30.938Z,4.50
2023-03-12T15:52:01.297Z,4.40
2023-03-12T15:54:31.009Z,4.20
2023-03-12T15:57:20.291Z,4.10
2023-03-12T16:00:13.882Z,4.10
2023-03-12T16:02:50.625Z,4.00
2023-03-12T16:05:20.064Z,4.10
2023-03-12T16:07:48.577Z,4.10
2023-03-12T16:10:18.948Z,4.20
2023-03-12T16:12:49.877Z,4.20
2023-03-12T16:15:21.899Z,4.50
2023-03-12T16:17:51.415Z,4.60
2023-03-12T16:20:20.099Z,4.70
2023-03-12T16:22:48.238Z,4.70
2023-03-12T16:25:16.457Z,4.40
2023-03-12T16:27:50.281Z,4.50
2023-03-12T16:30:23.764Z,4.70
2023-03-12T16:32:53.299Z,4.80
2023-03-12T16:35:22.388Z,5.00
2023-03-12T16:37:50.555Z,4.80
2023-03-12T16:40:32.522Z,4.90
2023-03-12T16:43:04.117Z,4.50
2023-03-12T16:45:34.971Z,4.50
2023-03-12T16:48:06.959Z,4.50
2023-03-12T16:50:35.107Z,4.50
2023-03-12T16:53:04.379Z,4.60
2023-03-12T16:55:45.169Z,4.70
2023-03-12T16:58:16.389Z,4.90
2023-03-12T17:00:45.265Z,4.80
2023-03-12T17:03:22.029Z,5.00
2023-03-12T17:05:50.512Z,4.90
2023-03-12T17:08:18.636Z,5.00
2023-03-12T17:10:46.787Z,4.90
2023-03-12T17:13:20.890Z,4.90
2023-03-12T17:15:50.005Z,5.00
2023-03-12T17:18:20.734Z,5.20
2023-03-12T17:20:52.033Z,5.20
2023-03-12T17:23:21.021Z,5.30
2023-03-12T17:25:49.383Z,5.30
2023-03-12T17:28:17.543Z,5.40
2023-03-12T17:30:47.677Z,5.40
2023-03-12T17:33:17.798Z,5.60
2023-03-12T17:35:47.384Z,5.50
2023-03-12T17:38:15.817Z,5.60
2023-03-12T17:40:45.871Z,5.60
2023-03-12T17:43:14.389Z,5.60
2023-03-12T17:45:43.096Z,5.70
2023-03-12T17:48:11.786Z,5.70
2023-03-12T17:50:39.929Z,5.70
2023-03-12T17:53:09.794Z,5.80
2023-03-12T17:55:38.421Z,5.80
2023-03-12T17:58:07.482Z,5.80
2023-03-12T18:00:35.895Z,5.80
2023-03-12T18:03:04.471Z,5.80
2023-03-12T18:05:33.247Z,5.90
2023-03-12T18:08:01.403Z,5.90
2023-03-12T18:10:32.181Z,5.90
2023-03-12T18:13:00.619Z,6.00
2023-03-12T18:15:28.732Z,5.90
2023-03-12T18:17:59.041Z,6.00
2023-03-12T18:20:37.769Z,6.00
2023-03-12T18:23:06.888Z,6.00
2023-03-12T18:25:37.891Z,6.10
2023-03-12T18:28:06.943Z,6.20
2023-03-12T18:30:35.780Z,6.20
2023-03-12T18:33:03.872Z,6.30
2023-03-12T18:35:32.101Z,6.30
2023-03-12T18:38:01.339Z,6.30
2023-03-12T18:40:32.823Z,6.30
2023-03-12T18:43:03.081Z,6.40
2023-03-12T18:45:31.677Z,6.40
2023-03-12T18:47:59.856Z,6.30
2023-03-12T18:50:28.296Z,6.30
2023-03-12T18:52:56.522Z,6.40
2023-03-12T18:55:24.677Z,6.30
2023-03-12T18:57:53.053Z,6.30
2023-03-12T19:00:22.916Z,6.40
2023-03-12T19:02:51.380Z,6.40
2023-03-12T19:05:19.712Z,6.30
2023-03-12T19:07:48.976Z,6.30
2023-03-12T19:10:17.673Z,6.30
2023-03-12T19:12:52.574Z,6.50
2023-03-12T19:15:24.502Z,6.40
2023-03-12T19:17:54.195Z,6.40
2023-03-12T19:20:23.097Z,6.40
2023-03-12T19:22:51.412Z,6.50
2023-03-12T19:25:20.418Z,6.50
2023-03-12T19:27:49.211Z,6.40
2023-03-12T19:30:17.833Z,6.40
2023-03-12T19:32:47.718Z,6.50
2023-03-12T19:35:16.870Z,6.40
2023-03-12T19:37:45.443Z,6.40
2023-03-12T19:40:14.508Z,6.50
2023-03-12T19:42:43.983Z,6.40
2023-03-12T19:45:13.948Z,6.50
2023-03-12T19:47:42.213Z,6.40
2023-03-12T19:50:14.077Z,6.50
2023-03-12T19:52:42.691Z,6.50
2023-03-12T19:55:11.976Z,6.60
2023-03-12T19:57:40.413Z,6.60
2023-03-12T20:00:12.497Z,6.60
2023-03-12T20:02:41.719Z,6.60
2023-03-12T20:05:11.816Z,6.60
2023-03-12T20:07:40.120Z,6.60
2023-03-12T20:10:10.957Z,6.70
2023-03-12T20:12:39.930Z,6.60
2023-03-12T20:15:09.437Z,6.60
2023-03-12T20:17:37.627Z,6.60
2023-03-12T20:20:07.187Z,6.60
2023-03-12T20:22:37.525Z,6.70
2023-03-12T20:25:06.753Z,6.70
2023-03-12T20:27:35.316Z,6.70
2023-03-12T20:30:04.610Z,6.70
2023-03-12T20:32:32.858Z,6.70
2023-03-12T20:35:01.091Z,6.70
2023-03-12T20:37:29.235Z,6.70
2023-03-12T20:39:58.710Z,6.60
2023-03-12T20:42:26.843Z,6.60
2023-03-12T20:44:55.068Z,6.60
2023-03-12T20:47:24.236Z,6.70
2023-03-12T20:49:52.654Z,6.70
2023-03-12T20:52:20.859Z,6.70
2023-03-12T20:54:49.066Z,6.70
2023-03-12T20:57:18.669Z,6.70
2023-03-12T20:59:47.106Z,6.70
2023-03-12T21:02:15.513Z,6.70
2023-03-12T21:04:45.434Z,6.70
2023-03-12T21:07:13.945Z,6.70
2023-03-12T21:09:42.155Z,6.80
2023-03-12T21:12:10.312Z,6.80
2023-03-12T21:14:40.906Z,6.80
2023-03-12T21:17:13.415Z,6.80
2023-03-12T21:19:42.087Z,6.90
2023-03-12T21:22:10.846Z,6.90
2023-03-12T21:24:39.130Z,6.90
2023-03-12T21:27:11.491Z,6.90
2023-03-12T21:29:42.546Z,6.90
2023-03-12T21:32:11.019Z,7.00
2023-03-12T21:34:39.368Z,7.00
2023-03-12T21:37:07.788Z,7.00
2023-03-12T21:39:36.287Z,7.10
2023-03-12T21:42:04.883Z,7.10
2023-03-12T21:44:35.222Z,7.10
2023-03-12T21:47:04.848Z,7.10
2023-03-12T21:49:34.113Z,7.10
2023-03-12T21:52:02.691Z,7.10
2023-03-12T21:54:34.836Z,7.20
2023-03-12T21:57:03.569Z,7.20
2023-03-12T21:59:32.637Z,7.20
2023-03-12T22:02:01.060Z,7.20
2023-03-12T22:04:30.631Z,7.20
2023-03-12T22:06:59.090Z,7.20
2023-03-12T22:09:27.875Z,7.30
2023-03-12T22:11:55.991Z,7.20
2023-03-12T22:14:24.415Z,7.20
2023-03-12T22:16:52.507Z,7.30
2023-03-12T22:19:21.579Z,7.30
2023-03-12T22:21:51.061Z,7.20
2023-03-12T22:24:19.480Z,7.30
2023-03-12T22:26:47.892Z,7.30
2023-03-12T22:29:16.330Z,7.20
2023-03-12T22:31:44.469Z,7.20
2023-03-12T22:34:12.592Z,7.20
2023-03-12T22:36:41.425Z,7.20
2023-03-12T22:39:11.225Z,7.30
2023-03-12T22:41:39.371Z,7.30
2023-03-12T22:44:09.072Z,7.20
2023-03-12T22:46:37.631Z,7.20
2023-03-12T22:49:06.047Z,7.30
2023-03-12T22:51:35.136Z,7.30
2023-03-12T22:54:03.256Z,7.30
2023-03-12T22:56:33.143Z,7.20
2023-03-12T22:59:01.537Z,7.30
2023-03-12T23:01:29.743Z,7.30
2023-03-12T23:03:57.845Z,7.30
2023-03-12T23:06:27.862Z,7.40
2023-03-12T23:08:56.404Z,7.30
2023-03-12T23:11:25.886Z,7.40
2023-03-12T23:13:56.170Z,7.30
2023-03-12T23:16:25.831Z,7.30
2023-03-12T23:18:55.182Z,7.30
2023-03-12T23:21:25.402Z,7.30
2023-03-12T23:23:54.170Z,7.40
2023-03-12T23:26:24.317Z,7.40
2023-03-12T23:28:54.707Z,7.40
2023-03-12T23:31:24.942Z,7.40
2023-03-12T23:33:53.082Z,7.40
2023-03-12T23:36:23.452Z,7.30
2023-03-12T23:38:52.071Z,7.40
2023-03-12T23:41:22.218Z,7.40
2023-03-12T23:43:50.548Z,7.40
2023-03-12T23:46:19.471Z,7.40
2023-03-12T23:48:48.970Z,7.50
2023-03-12T23:51:18.398Z,7.50
2023-03-12T23:53:48.470Z,7.50
2023-03-12T23:56:18.561Z,7.50
2023-03-12T23:58:47.464Z,7.50
